Time;durP1;ratioP1;P1;durP2;ratioP2;P2;SDS_P1;SDS_P2;PMS_P1;PMS_P2;Temp;Humidity;BMP_temperature;BMP_pressure;BME280_temperature;BME280_humidity;BME280_pressure;Samples;Min_cycle;Max_cycle;Signal;HPM_P1;HPM_P2
2023/06/14 00:02:08;;;;;;;10.30;9.40;;;;;;;8.46;87.49;97809.88;106804;1276;24366;-76
2023/06/14 00:04:38;;;;;;;10.10;9.10;;;;;;;8.51;87.18;97807.83;106859;1276;23896;-77
2023/06/14 00:07:09;;;;;;;10.00;9.10;;;;;;;8.55;87.49;97801.85;107078;1276;22629;-76
2023/06/14 00:09:40;;;;;;;10.10;9.00;;;;;;;8.57;87.74;97800.77;107139;1276;22635;-77
2023/06/14 00:12:08;;;;;;;8.80;8.00;;;;;;;8.66;87.52;97805.76;107156;1253;24296;-78
2023/06/14 00:14:36;;;;;;;9.70;8.80;;;;;;;8.74;88.10;97803.84;107107;1276;23934;-78
2023/06/14 00:17:05;;;;;;;10.80;9.70;;;;;;;8.77;88.32;97800.23;107043;1276;22529;-78
2023/06/14 00:19:36;;;;;;;11.50;10.40;;;;;;;8.83;90.11;97801.45;107035;1276;22637;-77
2023/06/14 00:22:04;;;;;;;9.90;8.90;;;;;;;8.86;90.29;97802.71;107123;1276;25283;-76
2023/06/14 00:24:32;;;;;;;10.00;9.10;;;;;;;8.89;89.81;97801.59;106798;1276;24093;-76
2023/06/14 00:27:00;;;;;;;10.30;9.30;;;;;;;8.95;89.05;97800.16;106810;1276;22636;-76
2023/06/14 00:29:29;;;;;;;11.00;9.90;;;;;;;9.02;90.48;97794.04;106811;1276;25436;-77
2023/06/14 00:31:57;;;;;;;10.20;9.20;;;;;;;9.09;90.08;97787.38;107128;1276;25536;-76
2023/06/14 00:34:27;;;;;;;11.50;10.50;;;;;;;9.18;89.46;97787.48;106856;1276;22517;-76
2023/06/14 00:36:55;;;;;;;12.50;10.30;;;;;;;9.23;90.02;97786.20;106817;1276;24340;-76
2023/06/14 00:39:23;;;;;;;12.10;10.90;;;;;;;9.25;90.17;97788.86;106797;1276;22602;-76
2023/06/14 00:41:51;;;;;;;11.80;10.00;;;;;;;9.26;89.98;97789.54;107125;1276;22802;-77
2023/06/14 00:44:21;;;;;;;11.40;10.20;;;;;;;9.28;89.75;97789.90;106816;1276;22533;-76
2023/06/14 00:46:49;;;;;;;11.90;10.80;;;;;;;9.30;90.64;97790.23;106894;1276;24305;-76
2023/06/14 00:49:19;;;;;;;13.80;12.50;;;;;;;9.30;89.85;97787.42;106776;1276;22637;-76
2023/06/14 00:51:47;;;;;;;13.50;12.20;;;;;;;9.31;89.55;97782.86;106927;1276;25345;-77
2023/06/14 00:54:15;;;;;;;14.20;12.80;;;;;;;9.29;89.50;97785.63;106704;1276;22522;-76
2023/06/14 00:56:44;;;;;;;14.00;12.60;;;;;;;9.28;90.05;97784.46;106783;1276;25252;-76
2023/06/14 00:59:13;;;;;;;13.30;12.10;;;;;;;9.30;91.05;97784.39;106786;1276;25360;-76
2023/06/14 01:01:41;;;;;;;13.80;12.50;;;;;;;9.31;91.36;97783.07;106962;1276;22515;-76
2023/06/14 01:04:09;;;;;;;13.70;12.40;;;;;;;9.33;91.59;97782.61;106817;1276;25316;-76
2023/06/14 01:06:56;;;;;;;13.30;12.00;;;;;;;9.37;92.18;97777.98;106812;1276;22629;-76
2023/06/14 01:09:44;;;;;;;14.90;13.40;;;;;;;9.40;93.38;97771.75;106792;1276;22532;-76
2023/06/14 01:12:24;;;;;;;15.60;14.00;;;;;;;9.37;93.71;97771.09;106790;1276;24336;-77
2023/06/14 01:14:54;;;;;;;14.90;13.50;;;;;;;9.32;92.57;97773.37;106630;1276;23921;-77
2023/06/14 01:17:23;;;;;;;14.80;13.30;;;;;;;9.32;92.84;97770.84;106820;1276;25271;-77
2023/06/14 01:19:57;;;;;;;14.00;12.60;;;;;;;9.33;93.00;97768.47;106736;1276;24528;-76
2023/06/14 01:22:27;;;;;;;15.00;13.60;;;;;;;9.36;93.94;97764.50;106800;1276;25207;-76
2023/06/14 01:24:56;;;;;;;14.60;13.10;;;;;;;9.37;94.46;97758.67;106905;1276;24351;-76
2023/06/14 01:27:28;;;;;;;14.30;12.90;;;;;;;9.38;95.11;97757.15;106849;1276;22530;-77
2023/06/14 01:29:57;;;;;;;15.20;13.80;;;;;;;9.39;95.24;97754.91;107038;1276;22573;-77
2023/06/14 01:32:26;;;;;;;14.40;13.00;;;;;;;9.40;95.63;97754.96;107100;1276;22644;-77
2023/06/14 01:34:54;;;;;;;14.30;12.90;;;;;;;9.41;96.20;97751.73;107137;1276;23421;-77
2023/06/14 01:37:23;;;;;;;14.50;13.10;;;;;;;9.43;95.75;97751.08;106800;1276;25726;-77
2023/06/14 01:39:53;;;;;;;14.30;12.80;;;;;;;9.49;95.03;97753.30;106840;1276;22529;-77
2023/06/14 01:42:23;;;;;;;15.10;13.60;;;;;;;9.55;94.59;97754.39;107099;1276;22521;-76
2023/06/14 01:44:52;;;;;;;14.70;13.20;;;;;;;9.62;94.44;97756.59;106848;1276;24238;-76
2023/06/14 01:47:21;;;;;;;14.20;12.80;;;;;;;9.66;94.64;97755.30;106785;1276;24273;-76
2023/06/14 01:49:49;;;;;;;14.60;13.10;;;;;;;9.68;95.03;97756.64;106892;1276;22532;-76
2023/06/14 01:52:19;;;;;;;16.50;12.90;;;;;;;9.69;95.53;97754.15;106745;1276;22525;-76
2023/06/14 01:54:47;;;;;;;14.00;12.20;;;;;;;9.71;94.92;97754.38;106932;1276;22564;-76
2023/06/14 01:57:16;;;;;;;13.40;12.10;;;;;;;9.76;94.40;97754.02;106815;1276;22637;-75
2023/06/14 01:59:48;;;;;;;13.20;11.80;;;;;;;9.86;94.20;97756.37;106788;1276;22562;-76
2023/06/14 02:02:16;;;;;;;13.90;12.60;;;;;;;9.95;94.17;97756.96;106854;1276;25320;-77
2023/06/14 02:04:46;;;;;;;16.30;14.00;;;;;;;10.02;94.23;97753.44;107022;1276;25398;-77
2023/06/14 02:07:14;;;;;;;17.10;15.40;;;;;;;10.07;94.12;97754.10;107085;1276;23977;-77
2023/06/14 02:09:42;;;;;;;19.50;17.70;;;;;;;10.08;93.89;97760.06;107022;1276;26348;-75
2023/06/14 02:12:10;;;;;;;17.00;15.40;;;;;;;10.04;94.36;97759.87;106885;1276;25396;-76
2023/06/14 02:14:39;;;;;;;16.60;15.00;;;;;;;9.97;94.89;97762.62;106931;1276;25651;-75
2023/06/14 02:17:07;;;;;;;18.40;16.50;;;;;;;9.92;93.79;97763.86;106882;1276;22540;-75
2023/06/14 02:19:35;;;;;;;21.20;16.60;;;;;;;9.92;94.02;97766.17;106806;1276;22524;-75
2023/06/14 02:22:04;;;;;;;19.10;17.10;;;;;;;9.97;93.76;97763.39;106785;1276;22581;-75
2023/06/14 02:24:35;;;;;;;17.40;15.70;;;;;;;10.02;93.68;97763.61;106834;1276;22990;-75
2023/06/14 02:27:03;;;;;;;17.10;15.40;;;;;;;10.09;94.30;97762.08;106781;1276;24447;-75
2023/06/14 02:29:31;;;;;;;16.70;15.00;;;;;;;10.10;95.12;97762.60;106797;1276;22631;-76
2023/06/14 02:31:59;;;;;;;18.50;15.60;;;;;;;10.08;95.12;97761.19;107080;1276;26325;-76
2023/06/14 02:34:28;;;;;;;16.20;14.50;;;;;;;10.08;94.62;97767.48;107077;1276;22573;-76
2023/06/14 02:36:57;;;;;;;16.30;14.60;;;;;;;10.11;94.27;97769.47;106830;1276;22512;-76
2023/06/14 02:39:26;;;;;;;17.10;15.30;;;;;;;10.19;94.13;97764.85;107076;1276;22520;-77
2023/06/14 02:41:54;;;;;;;18.40;16.40;;;;;;;10.23;93.82;97765.52;106869;1276;25255;-76
2023/06/14 02:44:28;;;;;;;18.60;16.20;;;;;;;10.29;93.79;97764.80;106828;1276;24618;-75
2023/06/14 02:46:56;;;;;;;;;;;;;;;10.33;93.86;97763.31;106884;1276;22625;-75
2023/06/14 02:49:25;;;;;;;17.40;15.70;;;;;;;10.35;93.77;97756.92;106634;1276;22620;-75
2023/06/14 02:51:53;;;;;;;14.50;13.10;;;;;;;10.35;93.87;97759.87;106831;1276;22545;-75
2023/06/14 02:54:21;;;;;;;14.20;12.80;;;;;;;10.35;93.73;97759.88;106650;1276;22584;-76
2023/06/14 02:56:49;;;;;;;13.70;12.30;;;;;;;10.35;93.70;97759.19;106616;1259;22541;-75
2023/06/14 02:59:19;;;;;;;14.40;13.00;;;;;;;10.39;94.23;97760.65;106793;1276;24277;-75
2023/06/14 03:01:47;;;;;;;12.90;11.70;;;;;;;10.43;94.41;97761.92;106850;1276;22577;-75
2023/06/14 03:04:16;;;;;;;13.30;11.60;;;;;;;10.43;95.87;97759.70;106943;1276;25290;-76
2023/06/14 03:06:44;;;;;;;15.50;14.00;;;;;;;10.35;96.21;97754.45;107116;1276;22547;-76
2023/06/14 03:09:13;;;;;;;12.90;11.60;;;;;;;10.26;96.24;97751.58;106812;1276;22638;-76
2023/06/14 03:11:41;;;;;;;12.60;11.30;;;;;;;10.21;96.86;97749.42;107241;1276;25313;-76
2023/06/14 03:14:11;;;;;;;12.30;11.00;;;;;;;10.13;97.29;97747.42;106911;1276;22579;-76
2023/06/14 03:16:41;;;;;;;13.80;10.80;;;;;;;10.07;98.26;97751.09;106669;1276;22663;-76
2023/06/14 03:19:09;;;;;;;13.70;11.30;;;;;;;10.00;98.04;97756.20;107078;1276;22580;-76
2023/06/14 03:21:43;;;;;;;12.50;11.30;;;;;;;9.99;98.22;97758.88;106859;1276;24377;-76
2023/06/14 03:24:11;;;;;;;13.10;11.80;;;;;;;9.96;98.10;97760.17;106792;1276;22521;-76
2023/06/14 03:26:40;;;;;;;12.30;11.10;;;;;;;9.93;97.38;97762.09;106810;1276;25520;-76
2023/06/14 03:29:08;;;;;;;12.50;10.70;;;;;;;9.97;96.84;97764.23;106822;1276;22533;-76
2023/06/14 03:31:59;;;;;;;14.20;10.30;;;;;;;10.05;96.82;97763.89;106807;1276;22593;-76
2023/06/14 03:34:34;;;;;;;12.90;10.60;;;;;;;10.09;96.99;97764.13;107143;1276;25274;-75
2023/06/14 03:37:03;;;;;;;14.10;11.30;;;;;;;10.14;96.73;97764.27;106853;1276;22525;-75
2023/06/14 03:39:31;;;;;;;15.10;12.60;;;;;;;10.21;96.59;97758.83;106600;1276;25006;-76
2023/06/14 03:41:59;;;;;;;16.20;13.00;;;;;;;10.28;96.38;97764.37;106866;1276;22602;-76
2023/06/14 03:44:28;;;;;;;16.60;12.10;;;;;;;10.32;96.35;97768.33;106799;1254;22560;-76
2023/06/14 03:46:56;;;;;;;15.80;12.20;;;;;;;10.34;96.95;97767.81;106797;1276;25389;-76
2023/06/14 03:49:24;;;;;;;14.30;11.90;;;;;;;10.34;96.72;97770.09;106657;1276;22545;-76
2023/06/14 03:51:52;;;;;;;14.60;11.60;;;;;;;10.35;96.73;97771.95;106790;1276;22532;-76
2023/06/14 03:54:22;;;;;;;17.50;12.20;;;;;;;10.36;97.65;97770.47;106820;1276;25284;-76
2023/06/14 03:56:54;;;;;;;15.30;12.40;;;;;;;10.35;97.70;97767.31;106812;1276;22527;-75
2023/06/14 03:59:23;;;;;;;15.30;11.70;;;;;;;10.32;98.15;97768.07;106821;1276;25269;-75
2023/06/14 04:01:53;;;;;;;13.10;11.30;;;;;;;10.30;98.79;97765.48;106630;1276;23911;-75
2023/06/14 04:04:21;;;;;;;15.20;12.00;;;;;;;10.28;99.30;97766.54;106808;1276;22518;-75
2023/06/14 04:06:49;;;;;;;13.50;11.60;;;;;;;10.26;99.35;97763.80;106820;1276;24399;-76
2023/06/14 04:09:18;;;;;;;13.70;12.00;;;;;;;10.26;99.26;97763.48;106795;1276;22563;-75
2023/06/14 04:11:46;;;;;;;13.30;11.90;;;;;;;10.31;98.61;97767.61;106781;1276;25765;-75
2023/06/14 04:14:14;;;;;;;13.70;12.20;;;;;;;10.40;98.39;97772.27;106784;1276;22640;-75
2023/06/14 04:16:42;;;;;;;18.20;14.50;;;;;;;10.48;98.24;97772.34;106828;1276;22522;-77
2023/06/14 04:19:11;;;;;;;16.20;13.20;;;;;;;10.54;98.58;97770.15;107154;1276;22525;-76
2023/06/14 04:21:39;;;;;;;18.10;14.20;;;;;;;10.59;98.88;97767.02;106807;1276;22638;-76
2023/06/14 04:24:12;;;;;;;17.80;13.20;;;;;;;10.62;99.75;97768.59;106611;1276;25380;-76
2023/06/14 04:26:44;;;;;;;;;;;;;;;10.62;99.90;97770.86;106805;1276;25253;-75
2023/06/14 04:29:16;;;;;;;21.00;14.10;;;;;;;10.61;99.82;97774.23;106803;1276;22524;-74
2023/06/14 04:31:49;;;;;;;16.60;14.10;;;;;;;10.62;99.90;97774.89;106603;1276;22613;-74
2023/06/14 04:34:17;;;;;;;23.40;15.20;;;;;;;10.62;100.00;97775.65;106809;1276;22607;-74
2023/06/14 04:36:59;;;;;;;15.90;13.10;;;;;;;10.58;100.00;97777.63;106829;1276;25344;-76
2023/06/14 04:39:32;;;;;;;16.20;12.20;;;;;;;10.76;100.00;97772.87;107150;1276;22546;-79
2023/06/14 04:42:03;;;;;;;17.50;12.80;;;;;;;11.08;100.00;97776.10;107138;1276;22832;-79
2023/06/14 04:44:32;;;;;;;20.00;14.00;;;;;;;11.21;100.00;97777.48;107040;1276;25264;-75
2023/06/14 04:47:04;;;;;;;19.70;14.30;;;;;;;11.35;99.84;97771.48;106754;1271;22564;-76
2023/06/14 04:49:33;;;;;;;20.40;14.60;;;;;;;11.33;99.60;97769.96;106771;1276;22558;-76
2023/06/14 04:52:02;;;;;;;21.60;14.70;;;;;;;11.25;99.69;97773.98;106797;1276;22575;-76
2023/06/14 04:54:41;;;;;;;16.70;14.20;;;;;;;11.19;99.26;97775.05;106802;1276;22525;-77
2023/06/14 04:57:13;;;;;;;20.50;14.50;;;;;;;11.20;99.20;97776.20;107081;1276;24242;-76
2023/06/14 04:59:44;;;;;;;16.70;14.90;;;;;;;11.24;99.46;97778.55;106685;1276;22520;-77
2023/06/14 05:02:12;;;;;;;17.00;15.20;;;;;;;11.22;99.56;97775.36;107117;1276;22602;-77
2023/06/14 05:04:40;;;;;;;17.80;15.50;;;;;;;11.19;99.36;97780.85;107110;1276;25471;-77
2023/06/14 05:07:09;;;;;;;17.90;14.50;;;;;;;11.21;99.49;97781.48;107118;1255;25256;-77
2023/06/14 05:09:37;;;;;;;15.80;12.80;;;;;;;11.21;99.94;97785.16;106803;1276;22562;-77
2023/06/14 05:12:09;;;;;;;16.40;13.50;;;;;;;11.20;99.72;97783.02;106799;1276;22627;-76
2023/06/14 05:14:37;;;;;;;15.00;13.10;;;;;;;11.22;99.98;97784.46;106653;1276;197487;-78
2023/06/14 05:17:07;;;;;;;13.70;12.00;;;;;;;11.23;99.99;97786.06;106769;1276;25272;-79
2023/06/14 05:19:35;;;;;;;13.40;12.00;;;;;;;11.22;99.97;97790.08;107091;1269;22531;-77
2023/06/14 05:22:04;;;;;;;14.20;12.10;;;;;;;11.24;99.78;97790.30;107389;1276;22525;-78
2023/06/14 05:24:32;;;;;;;14.30;11.80;;;;;;;11.25;99.58;97793.82;107183;1269;22523;-77
2023/06/14 05:27:00;;;;;;;14.80;13.20;;;;;;;11.29;99.70;97792.61;107103;1276;22536;-77
2023/06/14 05:29:29;;;;;;;14.00;12.50;;;;;;;11.35;99.55;97791.17;107293;1275;22704;-79
2023/06/14 05:31:57;;;;;;;14.40;12.50;;;;;;;11.38;99.54;97791.54;107338;1276;25303;-81
2023/06/14 05:34:26;;;;;;;17.20;12.80;;;;;;;11.44;99.34;97791.30;107331;1257;25284;-78
2023/06/14 05:36:55;;;;;;;16.20;13.30;;;;;;;11.50;99.54;97793.89;107019;1275;22537;-77
2023/06/14 05:39:24;;;;;;;16.10;13.50;;;;;;;11.56;99.43;97796.77;107016;1276;24355;-76
2023/06/14 05:41:52;;;;;;;18.60;13.50;;;;;;;11.60;99.40;97793.38;106993;1276;26685;-77
2023/06/14 05:44:20;;;;;;;17.30;15.40;;;;;;;11.65;99.40;97792.89;106905;1276;23240;-78
2023/06/14 05:46:48;;;;;;;22.30;14.00;;;;;;;11.68;99.44;97791.36;107223;1275;24239;-78
2023/06/14 05:49:16;;;;;;;20.00;14.70;;;;;;;11.72;99.62;97792.85;106984;1276;22556;-78
2023/06/14 05:51:44;;;;;;;21.20;14.50;;;;;;;11.75;99.59;97795.34;106971;1276;22621;-77
2023/06/14 05:54:12;;;;;;;16.70;14.40;;;;;;;11.79;99.95;97790.33;106993;1276;22529;-78
2023/06/14 05:56:40;;;;;;;18.70;14.60;;;;;;;11.79;99.87;97795.73;107178;1276;23894;-77
2023/06/14 05:59:08;;;;;;;20.30;14.30;;;;;;;11.78;99.64;97793.80;107334;1276;24386;-77
2023/06/14 06:01:36;;;;;;;13.50;12.20;;;;;;;11.83;99.94;97795.18;107286;1276;22634;-77
2023/06/14 06:04:05;;;;;;;15.80;13.00;;;;;;;11.91;100.00;97789.61;106872;1275;22548;-77
2023/06/14 06:06:33;;;;;;;15.10;12.00;;;;;;;11.97;100.00;97787.94;107015;1275;24199;-77
2023/06/14 06:09:02;;;;;;;13.60;12.10;;;;;;;12.07;100.00;97787.09;107306;1275;25309;-77
2023/06/14 06:11:30;;;;;;;13.80;12.30;;;;;;;12.20;100.00;97790.07;107031;1272;23053;-77
2023/06/14 06:14:18;;;;;;;11.80;10.60;;;;;;;12.39;100.00;97790.17;106909;1275;22525;-77
2023/06/14 06:16:46;;;;;;;11.70;10.10;;;;;;;12.60;100.00;97790.94;107371;1270;22733;-78
2023/06/14 06:19:15;;;;;;;9.80;8.80;;;;;;;12.79;100.00;97793.83;107215;1276;22573;-77
2023/06/14 06:21:43;;;;;;;6.50;5.80;;;;;;;12.96;100.00;97793.92;107372;1270;22529;-77
2023/06/14 06:24:11;;;;;;;5.20;4.30;;;;;;;13.11;100.00;97795.53;107367;1275;25378;-77
2023/06/14 06:26:39;;;;;;;4.30;3.90;;;;;;;13.20;100.00;97792.29;107411;1275;24243;-77
2023/06/14 06:29:08;;;;;;;5.90;4.20;;;;;;;13.26;100.00;97798.70;107359;1275;22536;-77
2023/06/14 06:31:36;;;;;;;5.20;4.50;;;;;;;13.36;99.91;97797.86;106878;1276;24277;-77
2023/06/14 06:34:04;;;;;;;4.80;4.30;;;;;;;13.42;99.98;97799.89;106789;1276;22521;-77
2023/06/14 06:36:32;;;;;;;5.20;3.50;;;;;;;13.50;100.00;97803.59;106828;1276;24316;-78
2023/06/14 06:39:00;;;;;;;4.50;3.60;;;;;;;13.59;99.70;97805.04;106816;1276;22687;-77
2023/06/14 06:41:28;;;;;;;4.70;4.20;;;;;;;13.58;99.47;97809.50;106889;1276;22535;-77
2023/06/14 06:43:56;;;;;;;4.50;4.10;;;;;;;13.57;99.09;97815.10;107185;1276;22578;-76
2023/06/14 06:46:29;;;;;;;4.10;3.70;;;;;;;13.53;98.95;97814.70;106867;1276;22566;-77
2023/06/14 06:48:57;;;;;;;5.40;4.90;;;;;;;13.49;98.74;97815.53;106787;1269;23003;-76
2023/06/14 06:51:25;;;;;;;7.50;6.80;;;;;;;13.47;98.68;97813.49;106750;1276;26695;-76
2023/06/14 06:53:54;;;;;;;5.00;4.50;;;;;;;13.47;98.71;97816.73;106793;1269;22644;-76
2023/06/14 06:56:24;;;;;;;5.90;4.50;;;;;;;13.41;98.73;97820.96;106850;1276;24231;-76
2023/06/14 06:58:52;;;;;;;3.90;3.50;;;;;;;13.46;98.52;97818.84;106817;1276;24351;-76
2023/06/14 07:01:20;;;;;;;5.40;4.80;;;;;;;13.51;98.40;97822.79;106792;1276;25411;-77
2023/06/14 07:03:48;;;;;;;5.90;5.00;;;;;;;13.53;98.18;97827.85;106881;1276;22684;-77
2023/06/14 07:06:18;;;;;;;4.00;3.60;;;;;;;13.49;97.92;97829.77;107209;1275;22696;-77
2023/06/14 07:08:49;;;;;;;4.30;3.90;;;;;;;13.49;97.87;97826.31;107339;1275;25469;-77
2023/06/14 07:11:17;;;;;;;4.40;3.90;;;;;;;13.59;98.14;97829.08;106948;1275;25625;-77
2023/06/14 07:13:45;;;;;;;3.70;3.40;;;;;;;13.66;97.61;97829.10;107328;1275;22760;-76
2023/06/14 07:16:13;;;;;;;3.90;3.10;;;;;;;13.76;97.55;97834.63;106983;1275;23520;-76
2023/06/14 07:18:41;;;;;;;3.40;3.10;;;;;;;13.88;97.80;97836.73;107423;1275;22536;-77
2023/06/14 07:21:09;;;;;;;4.50;3.40;;;;;;;14.00;97.52;97841.83;107335;1275;23652;-78
2023/06/14 07:23:37;;;;;;;4.10;3.70;;;;;;;14.09;97.29;97842.08;107379;1275;22643;-78
2023/06/14 07:26:05;;;;;;;3.30;3.10;;;;;;;14.15;97.27;97844.62;107272;1275;22569;-78
2023/06/14 07:28:33;;;;;;;4.20;3.70;;;;;;;14.24;97.26;97846.10;107323;1275;25513;-78
2023/06/14 07:31:02;;;;;;;3.50;3.20;;;;;;;14.33;96.56;97844.77;107322;1275;25534;-78
2023/06/14 07:33:30;;;;;;;3.00;2.70;;;;;;;14.37;96.21;97847.98;107275;1275;24245;-78
2023/06/14 07:35:58;;;;;;;2.80;2.50;;;;;;;14.45;96.56;97846.89;107173;1276;22532;-78
2023/06/14 07:38:26;;;;;;;3.40;2.30;;;;;;;14.55;96.43;97850.10;106813;1276;22518;-78
2023/06/14 07:40:54;;;;;;;2.70;2.50;;;;;;;14.65;96.30;97852.52;107200;1276;24116;-78
2023/06/14 07:43:22;;;;;;;2.70;2.50;;;;;;;14.68;95.99;97855.60;107214;1275;25420;-78
2023/06/14 07:45:51;;;;;;;2.50;2.30;;;;;;;14.73;96.00;97859.76;107176;1275;22644;-79
2023/06/14 07:48:34;;;;;;;4.30;2.80;;;;;;;14.85;95.88;97864.89;107397;1269;25298;-79
2023/06/14 07:51:03;;;;;;;2.70;2.50;;;;;;;14.87;94.90;97868.05;107321;1275;22524;-78
2023/06/14 07:53:31;;;;;;;3.10;2.70;;;;;;;14.85;94.85;97869.75;107255;1275;25354;-78
2023/06/14 07:56:00;;;;;;;2.80;2.60;;;;;;;14.75;94.03;97869.97;107135;1276;22715;-79
2023/06/14 07:58:28;;;;;;;3.00;2.80;;;;;;;14.57;93.76;97868.63;107190;1276;22531;-79
2023/06/14 08:00:56;;;;;;;2.70;2.50;;;;;;;14.45;93.93;97869.44;107158;1276;22527;-79
2023/06/14 08:03:24;;;;;;;3.20;2.90;;;;;;;14.36;93.72;97871.70;107249;1253;25590;-79
2023/06/14 08:05:53;;;;;;;3.20;2.90;;;;;;;14.21;92.93;97867.98;107209;1276;24186;-79
2023/06/14 08:08:21;;;;;;;12.00;3.90;;;;;;;14.06;93.03;97872.29;107229;1276;22485;-79
2023/06/14 08:10:49;;;;;;;4.70;4.30;;;;;;;13.97;93.56;97870.52;107156;1276;22651;-78
2023/06/14 08:13:17;;;;;;;4.50;4.10;;;;;;;13.96;93.59;97870.45;107191;1276;24186;-78
2023/06/14 08:15:45;;;;;;;4.40;4.00;;;;;;;13.93;93.36;97868.33;107215;1276;23029;-78
2023/06/14 08:18:13;;;;;;;4.20;3.80;;;;;;;13.89;93.02;97864.73;107165;1275;22615;-79
2023/06/14 08:20:42;;;;;;;5.10;4.00;;;;;;;13.87;93.55;97864.60;107114;1276;24126;-77
2023/06/14 08:23:11;;;;;;;4.20;3.80;;;;;;;13.92;93.57;97864.66;106833;1275;24262;-77
2023/06/14 08:25:39;;;;;;;4.70;4.20;;;;;;;13.94;93.55;97866.99;107277;1276;22651;-77
2023/06/14 08:28:07;;;;;;;4.20;3.80;;;;;;;13.94;93.31;97870.36;107276;1275;22547;-77
2023/06/14 08:30:35;;;;;;;4.70;4.20;;;;;;;13.91;93.04;97874.36;107001;1275;22541;-77
2023/06/14 08:33:03;;;;;;;4.50;4.00;;;;;;;13.88;93.10;97872.92;107327;1275;23245;-77
2023/06/14 08:35:44;;;;;;;4.00;3.60;;;;;;;13.90;93.08;97876.77;106922;1275;25217;-76
2023/06/14 08:38:12;;;;;;;4.30;3.90;;;;;;;13.91;93.05;97881.93;106891;1275;23957;-77
2023/06/14 08:40:41;;;;;;;5.20;4.60;;;;;;;13.83;92.89;97883.70;107238;1275;22653;-77
2023/06/14 08:43:10;;;;;;;7.10;4.40;;;;;;;13.76;92.77;97884.83;107284;1275;22539;-77
2023/06/14 08:45:38;;;;;;;6.00;4.50;;;;;;;13.67;92.76;97885.84;107163;1275;25460;-77
2023/06/14 08:48:07;;;;;;;5.00;4.50;;;;;;;13.65;92.89;97891.26;107284;1275;22652;-77
2023/06/14 08:50:39;;;;;;;5.10;4.20;;;;;;;13.70;93.27;97890.79;107231;1275;26595;-77
2023/06/14 08:53:10;;;;;;;5.50;3.90;;;;;;;13.75;93.14;97889.31;107124;1275;22544;-77
2023/06/14 08:55:39;;;;;;;4.20;3.80;;;;;;;13.83;93.08;97893.73;107201;1275;25468;-77
2023/06/14 08:58:14;;;;;;;3.90;3.50;;;;;;;13.86;92.96;97892.65;107146;1275;22537;-77
2023/06/14 09:00:42;;;;;;;3.50;3.20;;;;;;;13.91;93.05;97896.63;107253;1275;22609;-77
2023/06/14 09:03:13;;;;;;;3.70;3.10;;;;;;;14.01;93.10;97902.80;107389;1275;24533;-77
2023/06/14 09:05:42;;;;;;;3.50;2.90;;;;;;;14.12;93.04;97903.83;107427;1275;23600;-77
2023/06/14 09:08:10;;;;;;;4.00;3.10;;;;;;;14.24;93.08;97905.25;107166;1276;22511;-78
2023/06/14 09:10:40;;;;;;;4.80;2.60;;;;;;;14.32;92.98;97906.16;107325;1276;22528;-78
2023/06/14 09:13:09;;;;;;;3.10;2.60;;;;;;;14.36;92.77;97912.75;107224;1275;22542;-78
2023/06/14 09:15:37;;;;;;;3.50;3.10;;;;;;;14.39;92.62;97912.00;107195;1276;22524;-78
2023/06/14 09:18:06;;;;;;;4.40;2.80;;;;;;;14.42;92.79;97915.70;107201;1275;22543;-78
2023/06/14 09:20:35;;;;;;;6.00;2.70;;;;;;;14.47;92.71;97918.45;107283;1275;22561;-78
2023/06/14 09:23:05;;;;;;;4.20;2.30;;;;;;;14.54;92.75;97916.16;107131;1275;25349;-78
2023/06/14 09:25:43;;;;;;;3.40;2.20;;;;;;;14.63;92.89;97914.73;107072;1276;25244;-78
2023/06/14 09:28:12;;;;;;;4.60;3.50;;;;;;;14.66;92.56;97910.99;107168;1276;24055;-78
2023/06/14 09:30:40;;;;;;;4.90;3.80;;;;;;;14.64;92.43;97909.98;107130;1276;22797;-77
2023/06/14 09:33:09;;;;;;;4.40;3.10;;;;;;;14.61;92.63;97905.20;107086;1276;24230;-78
2023/06/14 09:35:37;;;;;;;4.60;3.10;;;;;;;14.71;92.66;97903.00;107122;1276;23478;-78
2023/06/14 09:38:06;;;;;;;3.30;2.60;;;;;;;14.89;92.98;97898.59;107114;1275;23212;-77
2023/06/14 09:40:36;;;;;;;4.20;2.50;;;;;;;15.11;92.97;97898.80;107086;1276;24193;-77
2023/06/14 09:43:09;;;;;;;2.50;2.30;;;;;;;15.28;92.76;97899.81;107148;1276;22548;-77
2023/06/14 09:45:45;;;;;;;3.00;2.70;;;;;;;15.35;92.30;97898.52;107198;1276;26570;-77
2023/06/14 09:48:17;;;;;;;2.60;2.40;;;;;;;15.41;92.33;97901.23;107319;1275;25865;-77
2023/06/14 09:50:48;;;;;;;2.60;2.40;;;;;;;15.47;92.38;97899.13;107379;1275;22667;-77
2023/06/14 09:53:22;;;;;;;2.70;2.50;;;;;;;15.49;91.83;97900.36;107357;1275;24227;-77
2023/06/14 09:55:54;;;;;;;2.30;2.10;;;;;;;15.55;91.96;97899.10;107333;1275;22567;-77
2023/06/14 09:58:25;;;;;;;3.00;2.20;;;;;;;15.56;90.83;97897.66;107303;1275;25621;-76
2023/06/14 10:00:54;;;;;;;3.30;2.50;;;;;;;15.41;90.14;97897.83;106767;1276;23087;-76
2023/06/14 10:03:29;;;;;;;2.30;2.10;;;;;;;15.29;90.91;97900.37;106753;1276;25448;-76
2023/06/14 10:06:11;;;;;;;2.70;2.10;;;;;;;15.35;91.15;97901.92;106831;1275;26800;-76
2023/06/14 10:08:40;;;;;;;2.30;2.10;;;;;;;15.40;90.99;97905.25;106941;1275;24060;-76
2023/06/14 10:11:08;;;;;;;3.00;2.50;;;;;;;15.34;90.67;97904.83;107434;1275;22639;-76
2023/06/14 10:13:37;;;;;;;4.90;3.90;;;;;;;15.39;91.24;97905.81;106945;1275;22610;-76
2023/06/14 10:16:13;;;;;;;3.70;3.40;;;;;;;15.45;90.78;97905.72;106910;1275;22527;-76
2023/06/14 10:18:59;;;;;;;5.00;3.90;;;;;;;15.52;91.05;97901.80;106950;1275;22634;-76
2023/06/14 10:21:50;;;;;;;4.30;3.70;;;;;;;15.74;91.26;97904.41;106928;1275;22541;-76
2023/06/14 10:24:23;;;;;;;3.40;2.80;;;;;;;15.98;90.50;97904.66;106932;1269;22606;-76
2023/06/14 10:26:53;;;;;;;3.00;2.70;;;;;;;16.13;90.20;97902.55;106959;1275;22573;-76
2023/06/14 10:29:22;;;;;;;3.30;3.00;;;;;;;16.30;90.02;97902.21;107025;1275;25268;-76
2023/06/14 10:31:56;;;;;;;3.80;3.40;;;;;;;16.46;89.86;97901.84;106948;1275;23909;-76
2023/06/14 10:34:25;;;;;;;;;;;;;;;16.58;89.67;97900.23;107538;1275;24188;-76
2023/06/14 10:37:04;;;;;;;4.40;3.80;;;;;;;16.73;89.83;97899.15;106922;1275;22521;-76
2023/06/14 10:39:41;;;;;;;5.00;3.50;;;;;;;16.86;89.34;97900.36;106791;1276;25343;-76
2023/06/14 10:42:09;;;;;;;4.50;4.10;;;;;;;16.99;88.88;97899.61;106854;1276;25415;-76
2023/06/14 10:44:40;;;;;;;4.50;3.90;;;;;;;17.00;87.59;97899.80;106770;1276;22532;-76
2023/06/14 10:47:26;;;;;;;4.10;3.70;;;;;;;16.96;87.40;97901.23;106766;1276;22523;-76
2023/06/14 10:50:02;;;;;;;4.40;4.00;;;;;;;17.02;88.10;97902.20;106719;1276;24199;-76
2023/06/14 10:52:35;;;;;;;4.30;3.90;;;;;;;17.14;87.12;97901.73;106802;1276;22539;-75
2023/06/14 10:55:18;;;;;;;4.40;4.00;;;;;;;17.19;86.96;97897.89;106872;1276;22524;-75
2023/06/14 10:57:51;;;;;;;5.50;4.40;;;;;;;17.36;87.37;97897.02;106769;1275;24064;-75
2023/06/14 11:00:24;;;;;;;;;;;;;;;17.52;84.84;97896.02;106861;1276;24217;-75
2023/06/14 11:03:07;;;;;;;5.30;4.60;;;;;;;17.52;84.99;97893.59;106748;1276;22520;-75
2023/06/14 11:05:48;;;;;;;5.00;4.50;;;;;;;17.54;83.58;97890.31;106799;1275;22572;-75
2023/06/14 11:08:44;;;;;;;4.90;4.40;;;;;;;17.39;80.88;97893.37;106757;1276;24236;-75
2023/06/14 11:11:13;;;;;;;5.50;4.50;;;;;;;17.09;81.21;97896.51;106728;1276;22564;-76
2023/06/14 11:13:45;;;;;;;6.70;4.60;;;;;;;17.06;82.51;97892.29;106878;1275;22643;-76
2023/06/14 11:16:16;;;;;;;5.10;3.80;;;;;;;17.13;82.76;97887.33;107006;1275;22647;-76
2023/06/14 11:18:45;;;;;;;4.90;4.00;;;;;;;17.21;82.53;97888.42;107039;1269;22584;-76
2023/06/14 11:21:18;;;;;;;4.80;4.20;;;;;;;17.25;82.76;97886.67;106986;1275;22783;-76
2023/06/14 11:23:54;;;;;;;4.70;4.20;;;;;;;17.29;82.50;97889.34;106800;1275;25583;-78
2023/06/14 11:26:30;;;;;;;5.90;5.00;;;;;;;17.21;81.46;97883.04;106958;1275;22532;-78
2023/06/14 11:29:00;;;;;;;7.50;5.30;;;;;;;17.04;80.27;97882.12;107425;1275;22532;-78
2023/06/14 11:31:29;;;;;;;6.20;5.40;;;;;;;16.87;80.26;97885.88;107445;1275;22564;-78
2023/06/14 11:34:00;;;;;;;5.40;4.60;;;;;;;16.77;79.95;97887.86;106896;1269;22549;-78